»·PEaware :: SWA1440 KSMF-KSNA

SWA1440 :: KSMF-KSNA

FLIGHT INFORMATION

Flight Status: Arrived
Operator:
Southwest Airlines
More flights by this operator :: More flights under this callsign
Pilot: Ben F. (2808)
Aircraft: BOEING 737-300
(B733)
More flights by this aircraft type
Origin: KSMF Sacramento Intl
United States
Destination: KSNA John Wayne-Orange Co
United States
More flights between these airports :: More routes between these airports
Route: FTHIL2 FRA REBRG OHSEA1
File this flight plan on PilotEdge
Remarks:
Altitude:
(Current/Filed)
35,000ft
Speed:
(Current/Filed)
423kts
Departed: 01-Apr-18 07:43 AM
Arrived: 01-Apr-18 08:58 AM
Distance/Time
Traveled:
351nm/1:15
Distance/Time
To Go:
Arrived

Flight Plot

Page will automatically refresh every two minutes.

Flight plan parsing failed; only flown route is shown


Map Options




Map Legend


Flown Route
Filed Route
Departure Airport
Arrival Airport
Navaid (VOR, NDB)
Fix

Horizontal Profiles

Position Reports

Time Latitude Longitude Heading Altitude Ground
Speed
01-Apr-18 07:26 38.696270 -121.594094 180 30ft 0kts
01-Apr-18 07:27 38.696270 -121.594094 180 30ft 0kts
01-Apr-18 07:28 38.696270 -121.594094 180 30ft 0kts
01-Apr-18 07:29 38.696270 -121.594094 180 30ft 0kts
01-Apr-18 07:30 38.696270 -121.594094 180 30ft 0kts
01-Apr-18 07:31 38.696270 -121.594094 180 30ft 0kts
01-Apr-18 07:32 38.696270 -121.594094 180 30ft 0kts
01-Apr-18 07:33 38.696715 -121.594009 215 30ft 2kts
01-Apr-18 07:34 38.696873 -121.593553 270 30ft 0kts
01-Apr-18 07:35 38.696873 -121.593553 270 30ft 0kts
01-Apr-18 07:36 38.696873 -121.593615 269 30ft 1kts
01-Apr-18 07:37 38.696813 -121.594798 268 30ft 1kts
01-Apr-18 07:38 38.696801 -121.595090 266 30ft 4kts
01-Apr-18 07:39 38.696295 -121.598651 178 30ft 17kts
01-Apr-18 07:40 38.690600 -121.598741 181 30ft 23kts
01-Apr-18 07:41 38.684378 -121.598856 184 30ft 11kts
01-Apr-18 07:42 38.689605 -121.601379 0 30ft 102kts
01-Apr-18 07:43 38.731220 -121.584154 61 1914ft 195kts
01-Apr-18 07:44 38.712900 -121.514737 125 3625ft 261kts
01-Apr-18 07:45 38.668433 -121.438442 126 6524ft 277kts
01-Apr-18 07:46 38.621257 -121.358307 126 9283ft 292kts
01-Apr-18 07:47 38.571836 -121.274450 128 11494ft 313kts
01-Apr-18 07:48 38.516634 -121.181270 128 13551ft 348kts
01-Apr-18 07:49 38.455822 -121.078964 127 15693ft 377kts
01-Apr-18 07:50 38.391764 -120.971560 127 18096ft 390kts
01-Apr-18 07:51 38.325300 -120.860502 127 20281ft 403kts
01-Apr-18 07:52 38.256612 -120.746126 127 22292ft 415kts
01-Apr-18 07:53 38.185465 -120.628069 127 24138ft 427kts
01-Apr-18 07:54 38.112239 -120.507012 127 25835ft 439kts
01-Apr-18 07:55 38.038104 -120.382761 125 27387ft 450kts
01-Apr-18 07:56 37.967062 -120.254971 125 28937ft 456kts
01-Apr-18 07:57 37.884145 -120.168089 153 30389ft 452kts
01-Apr-18 07:58 37.788653 -120.099302 150 31808ft 449kts
01-Apr-18 07:59 37.681716 -120.019731 150 33148ft 448kts
01-Apr-18 08:00 37.574715 -119.940356 150 34329ft 446kts
01-Apr-18 08:01 37.469248 -119.862440 150 35052ft 444kts
01-Apr-18 08:02 37.363486 -119.784596 150 35015ft 441kts
01-Apr-18 08:03 37.258179 -119.707336 150 35023ft 441kts
01-Apr-18 08:04 37.152443 -119.630004 150 35023ft 442kts
01-Apr-18 08:05 37.038807 -119.594448 185 35031ft 431kts
01-Apr-18 08:06 36.921373 -119.598637 183 35011ft 419kts
01-Apr-18 08:07 36.810902 -119.600539 183 35023ft 422kts
01-Apr-18 08:08 36.695389 -119.602507 183 35020ft 421kts
01-Apr-18 08:09 36.579355 -119.604484 183 35020ft 422kts
01-Apr-18 08:10 36.463421 -119.606455 183 35021ft 422kts
01-Apr-18 08:11 36.346711 -119.608426 183 35020ft 422kts
01-Apr-18 08:12 36.230137 -119.610393 183 35021ft 421kts
01-Apr-18 08:13 36.114522 -119.612364 183 35016ft 422kts
01-Apr-18 08:14 35.999381 -119.614495 183 35022ft 423kts
01-Apr-18 08:15 35.888090 -119.633683 192 34991ft 421kts
01-Apr-18 08:16 35.790594 -119.653611 191 35022ft 421kts
01-Apr-18 08:17 35.675587 -119.676800 189 35019ft 421kts
01-Apr-18 08:18 35.566259 -119.630279 157 35028ft 434kts
01-Apr-18 08:19 35.457190 -119.569320 158 35017ft 432kts
01-Apr-18 08:20 35.347995 -119.509145 158 35013ft 433kts
01-Apr-18 08:21 35.238577 -119.449022 158 35012ft 433kts
01-Apr-18 08:22 35.129499 -119.389210 158 35012ft 433kts
01-Apr-18 08:23 35.024189 -119.331600 158 35004ft 433kts
01-Apr-18 08:24 34.915093 -119.271946 156 35016ft 432kts
01-Apr-18 08:25 34.815431 -119.217990 156 35010ft 429kts
01-Apr-18 08:26 34.707900 -119.157765 153 35020ft 430kts
01-Apr-18 08:27 34.602563 -119.090649 152 35031ft 428kts
01-Apr-18 08:28 34.497121 -119.022777 152 31622ft 449kts
01-Apr-18 08:29 34.391146 -118.953255 151 27722ft 441kts
01-Apr-18 08:30 34.289675 -118.885817 152 25496ft 425kts
01-Apr-18 08:31 34.188406 -118.829168 163 23224ft 408kts
01-Apr-18 08:32 34.083658 -118.788272 162 21007ft 393kts
01-Apr-18 08:33 33.981962 -118.748874 162 18860ft 382kts
01-Apr-18 08:34 33.885878 -118.711720 162 16823ft 370kts
01-Apr-18 08:35 33.789756 -118.674709 162 14638ft 361kts
01-Apr-18 08:36 33.694753 -118.639749 163 12493ft 352kts
01-Apr-18 08:37 33.607424 -118.608487 155 11026ft 311kts
01-Apr-18 08:38 33.557498 -118.532780 121 9330ft 284kts
01-Apr-18 08:39 33.521394 -118.451085 91 7820ft 273kts
01-Apr-18 08:40 33.519405 -118.375823 90 6748ft 270kts
01-Apr-18 08:41 33.530132 -118.295092 68 5506ft 263kts
01-Apr-18 08:42 33.555573 -118.215457 68 5008ft 254kts
01-Apr-18 08:43 33.594639 -118.129337 56 5000ft 252kts
01-Apr-18 08:44 33.633259 -118.060044 57 5001ft 253kts
01-Apr-18 08:45 33.670436 -117.993237 56 4985ft 261kts
01-Apr-18 08:46 33.707078 -117.939672 27 5008ft 262kts
01-Apr-18 08:47 33.769798 -117.899414 27 5001ft 262kts
01-Apr-18 08:48 33.830194 -117.859901 27 5022ft 233kts
01-Apr-18 08:49 33.879974 -117.826892 27 5015ft 199kts
01-Apr-18 08:50 33.908749 -117.779607 91 4656ft 201kts
01-Apr-18 08:51 33.884470 -117.736329 189 3931ft 187kts
01-Apr-18 08:52 33.839967 -117.762961 212 3215ft 182kts
01-Apr-18 08:53 33.797449 -117.791770 208 2741ft 172kts
01-Apr-18 08:54 33.758822 -117.816142 207 1791ft 143kts
01-Apr-18 08:55 33.724839 -117.837680 207 1045ft 138kts
01-Apr-18 08:56 33.691283 -117.858919 206 339ft 139kts
01-Apr-18 08:57 33.669522 -117.872081 145 63ft 10kts
01-Apr-18 08:58 33.669672 -117.870329 39 63ft 14kts
01-Apr-18 08:59 33.673657 -117.866734 29 63ft 21kts
01-Apr-18 09:00 33.675273 -117.864894 118 63ft 0kts

Navigation Log

Ident Type
Flight plan parsing failed, navigation log unavailable